createdAt,value
2022-08-24T00:02:07.993Z,28.85
2022-08-24T00:04:38.715Z,28.71
2022-08-24T00:07:13.019Z,29.17
2022-08-24T00:09:53.202Z,28.69
2022-08-24T00:12:19.834Z,29.33
2022-08-24T00:14:46.374Z,29.56
2022-08-24T00:17:12.837Z,30.23
2022-08-24T00:19:39.623Z,30.57
2022-08-24T00:22:06.315Z,30.88
2022-08-24T00:24:33.958Z,30.65
2022-08-24T00:27:00.525Z,30.83
2022-08-24T00:29:27.135Z,30.88
2022-08-24T00:31:53.872Z,31.15
2022-08-24T00:34:20.564Z,31.21
2022-08-24T00:36:47.381Z,31.66
2022-08-24T00:39:14.308Z,31.82
2022-08-24T00:41:43.845Z,31.82
2022-08-24T00:44:11.732Z,31.20
2022-08-24T00:46:46.469Z,31.26
2022-08-24T00:49:19.203Z,31.42
2022-08-24T00:52:03.785Z,31.14
2022-08-24T00:54:31.972Z,31.46
2022-08-24T00:57:01.369Z,31.38
2022-08-24T00:59:34.285Z,31.62
2022-08-24T01:02:06.274Z,32.18
2022-08-24T01:04:52.111Z,32.00
2022-08-24T01:07:19.246Z,32.18
2022-08-24T01:09:46.359Z,32.41
2022-08-24T01:12:14.020Z,32.78
2022-08-24T01:14:40.610Z,33.18
2022-08-24T01:17:25.489Z,33.13
2022-08-24T01:19:55.210Z,33.38
2022-08-24T01:22:31.045Z,33.20
2022-08-24T01:24:57.668Z,33.63
2022-08-24T01:27:27.862Z,33.80
2022-08-24T01:29:55.738Z,34.51
2022-08-24T01:32:27.925Z,34.66
2022-08-24T01:34:55.722Z,34.79
2022-08-24T01:37:22.606Z,34.96
2022-08-24T01:39:50.620Z,35.11
2022-08-24T01:42:17.228Z,35.65
2022-08-24T01:44:45.106Z,35.96
2022-08-24T01:47:13.558Z,36.30
2022-08-24T01:49:45.044Z,36.64
2022-08-24T01:52:13.354Z,36.28
2022-08-24T01:54:43.570Z,36.71
2022-08-24T01:57:11.380Z,36.35
2022-08-24T01:59:43.458Z,36.62
2022-08-24T02:02:19.795Z,37.05
2022-08-24T02:04:46.441Z,36.92
2022-08-24T02:07:14.028Z,36.34
2022-08-24T02:09:41.437Z,36.71
2022-08-24T02:12:08.827Z,36.65
2022-08-24T02:14:36.085Z,36.71
2022-08-24T02:17:04.371Z,36.73
2022-08-24T02:19:31.179Z,37.17
2022-08-24T02:21:58.495Z,37.28
2022-08-24T02:24:25.063Z,37.50
2022-08-24T02:26:51.723Z,37.99
2022-08-24T02:29:18.332Z,37.88
2022-08-24T02:31:45.057Z,38.06
2022-08-24T02:34:11.683Z,37.68
2022-08-24T02:36:40.628Z,38.02
2022-08-24T02:39:08.122Z,37.74
2022-08-24T02:41:35.231Z,37.81
2022-08-24T02:44:02.851Z,37.69
2022-08-24T02:46:30.494Z,37.66
2022-08-24T02:49:11.499Z,37.35
2022-08-24T02:51:45.333Z,37.49
2022-08-24T02:54:19.555Z,37.57
2022-08-24T02:56:48.209Z,37.41
2022-08-24T02:59:16.300Z,37.24
2022-08-24T03:01:44.229Z,37.55
2022-08-24T03:04:12.052Z,36.94
2022-08-24T03:06:38.702Z,37.38
2022-08-24T03:09:05.638Z,37.43
2022-08-24T03:11:32.324Z,37.51
2022-08-24T03:13:59.513Z,37.66
2022-08-24T03:16:27.450Z,38.06
2022-08-24T03:18:54.620Z,38.48
2022-08-24T03:21:22.074Z,38.94
2022-08-24T03:24:06.627Z,38.60
2022-08-24T03:26:33.436Z,39.17
2022-08-24T03:29:00.388Z,39.50
2022-08-24T03:31:28.083Z,39.65
2022-08-24T03:33:54.617Z,39.93
2022-08-24T03:36:21.643Z,39.95
2022-08-24T03:38:48.363Z,39.96
2022-08-24T03:41:15.315Z,40.12
2022-08-24T03:43:46.612Z,39.72
2022-08-24T03:46:17.087Z,40.36
2022-08-24T03:48:44.482Z,40.57
2022-08-24T03:51:12.401Z,40.52
2022-08-24T03:53:42.338Z,40.70
2022-08-24T03:56:10.107Z,41.03
2022-08-24T03:58:37.842Z,41.00
2022-08-24T04:01:05.483Z,40.98
2022-08-24T04:03:37.171Z,41.16
2022-08-24T04:06:05.402Z,41.30
2022-08-24T04:08:32.489Z,41.40
2022-08-24T04:10:59.480Z,41.31
2022-08-24T04:13:26.095Z,41.11
2022-08-24T04:15:53.065Z,41.67
2022-08-24T04:18:20.052Z,41.73
2022-08-24T04:20:46.736Z,41.82
2022-08-24T04:23:17.442Z,41.65
2022-08-24T04:25:45.645Z,41.64
2022-08-24T04:28:13.887Z,41.73
2022-08-24T04:30:41.845Z,41.43
2022-08-24T04:33:10.780Z,41.30
2022-08-24T04:35:41.819Z,42.23
2022-08-24T04:38:08.675Z,42.30
2022-08-24T04:40:39.311Z,42.23
2022-08-24T04:43:06.227Z,42.37
2022-08-24T04:45:37.839Z,42.25
2022-08-24T04:48:04.593Z,42.36
2022-08-24T04:50:33.973Z,42.51
2022-08-24T04:53:00.571Z,42.73
2022-08-24T04:55:27.242Z,42.32
2022-08-24T04:57:54.278Z,42.71
2022-08-24T05:00:21.072Z,42.63
2022-08-24T05:02:47.731Z,42.99
2022-08-24T05:05:14.545Z,42.67
2022-08-24T05:07:41.006Z,43.01
2022-08-24T05:10:08.913Z,42.96
2022-08-24T05:12:35.863Z,42.63
2022-08-24T05:15:07.163Z,42.56
2022-08-24T05:17:41.058Z,42.52
2022-08-24T05:20:10.285Z,42.48
2022-08-24T05:22:38.112Z,41.97
2022-08-24T05:25:05.667Z,42.09
2022-08-24T05:27:33.894Z,42.06
2022-08-24T05:30:00.669Z,41.75
2022-08-24T05:32:27.298Z,41.94
2022-08-24T05:34:54.472Z,42.21
2022-08-24T05:37:21.790Z,42.38
2022-08-24T05:40:10.358Z,42.32
2022-08-24T05:42:39.386Z,42.20
2022-08-24T05:45:07.383Z,42.12
2022-08-24T05:47:34.776Z,42.00
2022-08-24T05:50:08.176Z,41.74
2022-08-24T05:52:35.655Z,42.20
2022-08-24T05:55:02.680Z,42.14
2022-08-24T05:57:34.713Z,41.93
2022-08-24T06:00:12.380Z,41.74
2022-08-24T06:02:52.906Z,41.62
2022-08-24T06:05:20.923Z,41.90
2022-08-24T06:07:47.680Z,41.99
2022-08-24T06:10:35.427Z,41.67
2022-08-24T06:13:01.120Z,41.77
2022-08-24T06:15:28.054Z,41.68
2022-08-24T06:17:54.821Z,41.44
2022-08-24T06:20:22.235Z,41.14
2022-08-24T06:22:50.299Z,41.05
2022-08-24T06:25:36.584Z,40.67
2022-08-24T06:28:03.515Z,39.78
2022-08-24T06:30:30.648Z,39.34
2022-08-24T06:33:18.011Z,39.11
2022-08-24T06:35:47.776Z,39.32
2022-08-24T06:38:14.655Z,38.58
2022-08-24T06:40:42.966Z,38.11
2022-08-24T06:43:11.311Z,38.03
2022-08-24T06:45:51.245Z,38.02
2022-08-24T06:48:21.367Z,36.80
2022-08-24T06:50:49.673Z,35.05
2022-08-24T06:53:17.120Z,33.26
2022-08-24T06:55:50.207Z,33.31
2022-08-24T06:58:17.685Z,33.92
2022-08-24T07:00:45.002Z,34.49
2022-08-24T07:03:13.043Z,34.63
2022-08-24T07:05:51.194Z,35.14
2022-08-24T07:08:30.673Z,35.65
2022-08-24T07:10:57.286Z,35.10
2022-08-24T07:13:23.873Z,35.13
2022-08-24T07:15:50.867Z,35.79
2022-08-24T07:18:18.236Z,35.60
2022-08-24T07:20:48.179Z,34.96
2022-08-24T07:23:20.724Z,35.02
2022-08-24T07:25:49.610Z,34.82
2022-08-24T07:28:27.779Z,34.80
2022-08-24T07:31:00.090Z,34.51
2022-08-24T07:33:28.537Z,34.90
2022-08-24T07:35:56.340Z,34.94
2022-08-24T07:38:24.096Z,33.68
2022-08-24T07:41:33.677Z,33.76
2022-08-24T07:43:42.939Z,34.01
2022-08-24T07:46:10.529Z,33.77
2022-08-24T07:48:37.223Z,33.65
2022-08-24T07:51:08.264Z,33.87
2022-08-24T07:53:52.499Z,34.14
2022-08-24T07:56:21.847Z,34.10
2022-08-24T07:58:49.423Z,33.39
2022-08-24T08:01:22.536Z,33.64
2022-08-24T08:03:50.391Z,33.49
2022-08-24T08:06:19.083Z,33.21
2022-08-24T08:08:47.977Z,32.55
2022-08-24T08:11:14.693Z,33.12
2022-08-24T08:16:09.021Z,32.20
2022-08-24T08:18:35.866Z,31.31
2022-08-24T08:21:27.446Z,30.99
2022-08-24T08:24:14.280Z,30.45
2022-08-24T08:26:43.691Z,30.03
2022-08-24T08:29:15.873Z,29.87
2022-08-24T08:31:42.585Z,29.31
2022-08-24T08:34:10.058Z,28.53
2022-08-24T08:36:39.553Z,27.69
2022-08-24T08:39:07.956Z,25.82
2022-08-24T08:41:36.027Z,22.68
2022-08-24T08:44:15.967Z,19.57
2022-08-24T08:47:02.628Z,18.28
2022-08-24T08:49:54.394Z,18.01
2022-08-24T08:52:24.688Z,16.98
2022-08-24T08:54:59.893Z,15.24
2022-08-24T08:57:34.945Z,14.76
2022-08-24T09:00:15.600Z,13.51
2022-08-24T09:03:03.816Z,13.59
2022-08-24T09:05:41.822Z,13.05
2022-08-24T09:08:27.475Z,12.10
2022-08-24T09:11:03.554Z,11.45
2022-08-24T09:13:30.173Z,11.71
2022-08-24T09:16:19.410Z,11.27
2022-08-24T09:19:02.834Z,10.92
2022-08-24T09:21:48.436Z,10.95
2022-08-24T09:24:29.388Z,9.62
2022-08-24T09:27:08.961Z,9.89
2022-08-24T09:29:45.763Z,9.67
2022-08-24T09:32:16.356Z,9.44
2022-08-24T09:34:53.817Z,9.58
2022-08-24T09:37:32.011Z,8.60
2022-08-24T09:39:58.538Z,8.22
2022-08-24T09:42:27.955Z,8.35
2022-08-24T09:45:04.972Z,9.07
2022-08-24T09:47:40.721Z,8.59
2022-08-24T09:50:16.385Z,7.85
2022-08-24T09:53:09.637Z,8.49
2022-08-24T09:55:55.230Z,7.54
2022-08-24T09:58:32.173Z,7.26
2022-08-24T10:01:08.848Z,6.46
2022-08-24T10:03:50.058Z,5.93
2022-08-24T10:06:24.294Z,6.17
2022-08-24T10:08:56.924Z,5.73
2022-08-24T10:11:42.685Z,5.43
2022-08-24T10:14:09.247Z,4.78
2022-08-24T10:16:54.634Z,4.89
2022-08-24T10:19:44.367Z,5.12
2022-08-24T10:22:20.259Z,5.05
2022-08-24T10:24:53.872Z,4.42
2022-08-24T10:27:29.068Z,5.05
2022-08-24T10:30:08.033Z,5.08
2022-08-24T10:32:53.089Z,4.92
2022-08-24T10:35:22.356Z,4.36
2022-08-24T10:37:52.051Z,3.94
2022-08-24T10:40:19.334Z,3.99
2022-08-24T10:43:25.974Z,3.66
2022-08-24T10:45:59.066Z,4.40
2022-08-24T10:48:33.323Z,4.44
2022-08-24T10:51:10.603Z,4.54
2022-08-24T10:53:37.329Z,4.23
2022-08-24T10:56:04.522Z,4.32
2022-08-24T10:58:31.162Z,4.34
2022-08-24T11:01:12.522Z,4.35
2022-08-24T11:04:02.824Z,4.01
2022-08-24T11:06:31.751Z,4.44
2022-08-24T11:09:02.671Z,3.96
2022-08-24T11:11:31.334Z,4.54
2022-08-24T11:14:00.631Z,4.00
2022-08-24T11:16:47.515Z,3.80
2022-08-24T11:19:29.232Z,4.39
2022-08-24T11:21:57.121Z,4.05
2022-08-24T11:24:26.705Z,3.98
2022-08-24T11:27:02.871Z,3.70
2022-08-24T11:29:31.521Z,3.54
2022-08-24T11:31:58.943Z,3.55
2022-08-24T11:34:33.881Z,3.83
2022-08-24T11:37:00.455Z,3.87
2022-08-24T11:39:35.462Z,3.55
2022-08-24T11:42:02.058Z,3.66
2022-08-24T11:44:37.031Z,3.77
2022-08-24T11:47:10.091Z,3.75
2022-08-24T11:49:36.605Z,4.07
2022-08-24T11:52:08.501Z,4.16
2022-08-24T11:54:53.777Z,4.20
2022-08-24T11:57:47.602Z,3.88
2022-08-24T12:00:19.789Z,4.14
2022-08-24T12:03:05.724Z,4.17
2022-08-24T12:05:40.405Z,4.27
2022-08-24T12:08:16.168Z,4.73
2022-08-24T12:11:01.356Z,5.29
2022-08-24T12:13:36.150Z,5.59
2022-08-24T12:16:16.627Z,5.20
2022-08-24T12:18:43.966Z,5.81
2022-08-24T12:21:13.185Z,6.05
2022-08-24T12:23:44.938Z,6.69
2022-08-24T12:26:14.562Z,9.09
2022-08-24T12:28:44.459Z,10.52
2022-08-24T12:31:16.012Z,10.65
2022-08-24T12:33:46.126Z,11.41
2022-08-24T12:36:27.058Z,12.89
2022-08-24T12:39:02.985Z,12.74
2022-08-24T12:41:33.420Z,13.03
2022-08-24T12:44:06.202Z,14.40
2022-08-24T12:46:32.968Z,14.62
2022-08-24T12:49:05.719Z,14.94
2022-08-24T12:51:35.367Z,15.26
2022-08-24T12:54:20.865Z,15.51
2022-08-24T12:56:48.231Z,15.58
2022-08-24T12:59:22.488Z,16.07
2022-08-24T13:02:01.662Z,16.14
2022-08-24T13:04:28.353Z,16.30
2022-08-24T13:07:30.194Z,16.03
2022-08-24T13:09:56.707Z,16.73
2022-08-24T13:12:43.581Z,16.34
2022-08-24T13:15:19.749Z,16.38
2022-08-24T13:17:46.988Z,16.90
2022-08-24T13:20:22.680Z,16.22
2022-08-24T13:23:08.110Z,15.92
2022-08-24T13:25:42.823Z,16.30
2022-08-24T13:28:27.735Z,16.68
2022-08-24T13:31:13.214Z,16.08
2022-08-24T13:33:42.875Z,16.47
2022-08-24T13:36:28.759Z,16.89
2022-08-24T13:39:09.450Z,16.12
2022-08-24T13:41:42.088Z,17.12
2022-08-24T13:44:22.276Z,16.77
2022-08-24T13:47:01.170Z,16.18
2022-08-24T13:49:30.662Z,16.23
2022-08-24T13:52:15.983Z,16.49
2022-08-24T13:54:45.970Z,16.31
2022-08-24T13:57:15.210Z,16.03
2022-08-24T13:59:43.307Z,15.83
2022-08-24T14:02:21.199Z,16.61
2022-08-24T14:05:08.108Z,15.78
2022-08-24T14:07:46.902Z,16.30
2022-08-24T14:10:32.009Z,15.93
2022-08-24T14:13:14.884Z,16.34
2022-08-24T14:16:13.507Z,16.23
2022-08-24T14:18:55.711Z,17.46
2022-08-24T14:21:24.703Z,16.41
2022-08-24T14:24:02.804Z,16.59
2022-08-24T14:26:36.883Z,17.07
2022-08-24T14:29:15.882Z,17.54
2022-08-24T14:32:11.785Z,17.34
2022-08-24T14:34:40.729Z,16.71
2022-08-24T14:37:13.503Z,16.86
2022-08-24T14:39:43.000Z,17.13
2022-08-24T14:42:15.945Z,17.12
2022-08-24T14:44:49.864Z,17.17
2022-08-24T14:47:43.175Z,17.05
2022-08-24T14:50:15.583Z,16.67
2022-08-24T14:52:51.756Z,16.67
2022-08-24T14:55:22.198Z,16.56
2022-08-24T14:57:51.767Z,16.38
2022-08-24T15:00:20.768Z,16.65
2022-08-24T15:02:53.427Z,16.46
2022-08-24T15:05:31.963Z,16.52
2022-08-24T15:08:01.256Z,16.57
2022-08-24T15:10:39.511Z,15.76
2022-08-24T15:13:20.741Z,15.56
2022-08-24T15:15:57.775Z,16.16
2022-08-24T15:18:42.638Z,16.09
2022-08-24T15:21:27.602Z,16.55
2022-08-24T15:23:59.885Z,16.67
2022-08-24T15:26:41.645Z,16.64
2022-08-24T15:29:13.089Z,16.73
2022-08-24T15:31:39.789Z,16.70
2022-08-24T15:34:06.540Z,16.75
2022-08-24T15:36:34.503Z,17.10
2022-08-24T15:39:03.189Z,16.87
2022-08-24T15:41:39.065Z,17.34
2022-08-24T15:44:09.442Z,17.34
2022-08-24T15:46:42.967Z,17.77
2022-08-24T15:49:15.558Z,17.25
2022-08-24T15:51:42.121Z,17.38
2022-08-24T15:54:24.906Z,17.39
2022-08-24T15:56:56.593Z,17.51
2022-08-24T15:59:29.571Z,17.69
2022-08-24T16:02:30.959Z,17.86
2022-08-24T16:05:16.603Z,17.75
2022-08-24T16:08:01.659Z,17.65
2022-08-24T16:10:33.724Z,17.96
2022-08-24T16:13:09.564Z,17.90
2022-08-24T16:15:44.319Z,18.00
2022-08-24T16:18:11.038Z,18.55
2022-08-24T16:20:37.671Z,18.38
2022-08-24T16:23:24.602Z,18.43
2022-08-24T16:26:11.163Z,18.22
2022-08-24T16:28:38.076Z,18.78
2022-08-24T16:31:07.075Z,18.71
2022-08-24T16:33:43.169Z,18.29
2022-08-24T16:36:15.651Z,18.20
2022-08-24T16:38:47.014Z,18.36
2022-08-24T16:41:16.271Z,18.70
2022-08-24T16:43:43.284Z,18.47
2022-08-24T16:46:11.448Z,18.88
2022-08-24T16:48:38.232Z,18.63
2022-08-24T16:51:04.843Z,18.74
2022-08-24T16:53:32.451Z,19.17
2022-08-24T16:55:59.147Z,19.46
2022-08-24T16:58:29.710Z,19.31
2022-08-24T17:00:56.333Z,19.05
2022-08-24T17:03:23.041Z,18.66
2022-08-24T17:05:49.737Z,19.01
2022-08-24T17:08:16.408Z,18.83
2022-08-24T17:10:43.872Z,18.91
2022-08-24T17:13:14.219Z,19.07
2022-08-24T17:15:53.814Z,19.46
2022-08-24T17:18:20.642Z,19.07
2022-08-24T17:20:47.758Z,19.73
2022-08-24T17:23:14.415Z,19.37
2022-08-24T17:25:41.928Z,20.40
2022-08-24T17:28:10.259Z,19.61
2022-08-24T17:30:36.787Z,20.38
2022-08-24T17:33:03.469Z,20.41
2022-08-24T17:35:30.067Z,20.42
2022-08-24T17:37:57.576Z,19.80
2022-08-24T17:40:25.096Z,19.52
2022-08-24T17:42:52.044Z,19.66
2022-08-24T17:45:19.214Z,20.02
2022-08-24T17:47:46.289Z,19.54
2022-08-24T17:50:13.518Z,20.25
2022-08-24T17:52:40.525Z,20.00
2022-08-24T17:55:07.925Z,19.31
2022-08-24T17:57:34.426Z,20.02
2022-08-24T18:00:01.011Z,20.21
2022-08-24T18:02:27.741Z,19.38
2022-08-24T18:04:56.725Z,19.99
2022-08-24T18:07:36.186Z,20.05
2022-08-24T18:10:11.206Z,20.34
2022-08-24T18:12:38.236Z,19.85
2022-08-24T18:15:05.538Z,20.62
2022-08-24T18:17:44.878Z,20.75
2022-08-24T18:20:13.777Z,20.53
2022-08-24T18:22:44.885Z,21.15
2022-08-24T18:25:13.007Z,20.90
2022-08-24T18:27:40.114Z,21.38
2022-08-24T18:30:08.145Z,21.85
2022-08-24T18:32:39.242Z,20.88
2022-08-24T18:35:06.989Z,21.34
2022-08-24T18:37:33.623Z,21.53
2022-08-24T18:40:00.410Z,21.66
2022-08-24T18:42:28.328Z,21.28
2022-08-24T18:44:55.055Z,21.61
2022-08-24T18:47:21.631Z,21.93
2022-08-24T18:49:48.520Z,21.95
2022-08-24T18:52:17.086Z,22.67
2022-08-24T18:54:45.020Z,22.68
2022-08-24T18:57:11.690Z,21.86
2022-08-24T18:59:40.571Z,22.15
2022-08-24T19:02:30.944Z,22.27
2022-08-24T19:04:59.055Z,22.96
2022-08-24T19:07:26.681Z,23.07
2022-08-24T19:09:53.232Z,22.16
2022-08-24T19:12:20.443Z,22.29
2022-08-24T19:14:49.984Z,22.22
2022-08-24T19:17:16.624Z,23.28
2022-08-24T19:19:43.201Z,22.46
2022-08-24T19:22:10.652Z,22.94
2022-08-24T19:24:38.236Z,23.02
2022-08-24T19:27:06.661Z,22.96
2022-08-24T19:29:54.741Z,23.08
2022-08-24T19:32:22.496Z,23.21
2022-08-24T19:34:50.003Z,24.11
2022-08-24T19:37:16.711Z,23.87
2022-08-24T19:39:43.569Z,24.42
2022-08-24T19:42:12.946Z,23.68
2022-08-24T19:44:58.641Z,23.96
2022-08-24T19:47:25.824Z,24.55
2022-08-24T19:49:52.668Z,24.56
2022-08-24T19:52:20.333Z,24.34
2022-08-24T19:54:47.456Z,25.00
2022-08-24T19:57:32.719Z,24.80
2022-08-24T20:00:00.963Z,25.13
2022-08-24T20:02:27.572Z,25.11
2022-08-24T20:04:54.355Z,24.59
2022-08-24T20:07:21.012Z,25.30
2022-08-24T20:09:47.558Z,25.39
2022-08-24T20:12:14.076Z,24.92
2022-08-24T20:14:40.621Z,25.40
2022-08-24T20:17:07.156Z,24.74
2022-08-24T20:19:36.354Z,25.23
2022-08-24T20:22:02.922Z,25.52
2022-08-24T20:24:39.971Z,25.86
2022-08-24T20:27:06.546Z,24.89
2022-08-24T20:29:33.350Z,25.77
2022-08-24T20:32:02.466Z,25.51
2022-08-24T20:34:29.670Z,25.75
2022-08-24T20:36:57.349Z,25.28
2022-08-24T20:39:25.754Z,25.74
2022-08-24T20:41:53.146Z,25.24
2022-08-24T20:44:19.779Z,25.98
2022-08-24T20:46:49.638Z,26.05
2022-08-24T20:49:16.883Z,25.99
2022-08-24T20:51:43.976Z,26.01
2022-08-24T20:54:11.345Z,26.08
2022-08-24T20:56:38.416Z,26.40
2022-08-24T20:59:06.483Z,25.93
2022-08-24T21:01:33.118Z,25.75
2022-08-24T21:04:04.834Z,26.32
2022-08-24T21:06:32.055Z,26.48
2022-08-24T21:08:58.568Z,26.77
2022-08-24T21:11:25.155Z,25.97
2022-08-24T21:13:51.879Z,26.69
2022-08-24T21:16:18.764Z,26.70
2022-08-24T21:18:46.935Z,26.28
2022-08-24T21:21:13.650Z,27.22
2022-08-24T21:23:40.385Z,27.29
2022-08-24T21:26:08.613Z,26.98
2022-08-24T21:28:36.282Z,27.01
2022-08-24T21:31:06.179Z,26.74
2022-08-24T21:33:52.241Z,27.25
2022-08-24T21:36:20.551Z,27.57
2022-08-24T21:38:47.397Z,27.85
2022-08-24T21:41:13.924Z,27.84
2022-08-24T21:43:40.470Z,27.40
2022-08-24T21:46:08.096Z,28.35
2022-08-24T21:48:34.644Z,28.44
2022-08-24T21:51:01.243Z,27.59
2022-08-24T21:53:28.667Z,27.66
2022-08-24T21:55:56.010Z,28.35
2022-08-24T21:58:24.036Z,28.50
2022-08-24T22:00:51.835Z,28.55
2022-08-24T22:03:18.522Z,28.74
2022-08-24T22:05:45.243Z,28.42
2022-08-24T22:08:11.833Z,29.21
2022-08-24T22:10:38.428Z,28.89
2022-08-24T22:13:05.050Z,29.66
2022-08-24T22:15:33.700Z,29.09
2022-08-24T22:18:00.729Z,29.28
2022-08-24T22:20:27.355Z,29.87
2022-08-24T22:22:53.991Z,29.48
2022-08-24T22:25:20.626Z,29.76
2022-08-24T22:27:47.473Z,30.19
2022-08-24T22:30:15.856Z,30.57
2022-08-24T22:32:42.499Z,30.60
2022-08-24T22:35:09.347Z,30.42
2022-08-24T22:37:36.042Z,30.67
2022-08-24T22:40:03.876Z,30.75
2022-08-24T22:42:30.538Z,30.83
2022-08-24T22:44:58.650Z,31.59
2022-08-24T22:47:25.945Z,31.51
2022-08-24T22:49:54.603Z,31.83
2022-08-24T22:52:21.189Z,31.54
2022-08-24T22:54:47.755Z,31.96
2022-08-24T22:57:14.312Z,32.23
2022-08-24T22:59:46.337Z,32.72
2022-08-24T23:02:14.625Z,32.46
2022-08-24T23:04:45.855Z,32.58
2022-08-24T23:07:13.847Z,32.59
2022-08-24T23:09:44.652Z,33.31
2022-08-24T23:12:12.831Z,33.29
2022-08-24T23:14:39.572Z,33.25
2022-08-24T23:17:06.159Z,33.54
2022-08-24T23:19:51.581Z,33.62
2022-08-24T23:22:19.251Z,33.59
2022-08-24T23:24:46.172Z,33.68
2022-08-24T23:27:13.730Z,34.29
2022-08-24T23:29:40.423Z,33.69
2022-08-24T23:32:07.259Z,34.57
2022-08-24T23:34:34.489Z,34.72
2022-08-24T23:37:01.364Z,34.92
2022-08-24T23:39:28.210Z,34.15
2022-08-24T23:41:55.142Z,34.42
2022-08-24T23:44:26.036Z,34.51
2022-08-24T23:46:52.772Z,34.93
2022-08-24T23:49:20.194Z,34.95
2022-08-24T23:51:47.354Z,34.83
2022-08-24T23:54:14.864Z,34.93
2022-08-24T23:56:42.546Z,34.89
2022-08-24T23:59:17.018Z,35.01
